Time;durP1;ratioP1;P1;durP2;ratioP2;P2;SDS_P1;SDS_P2;PMS_P1;PMS_P2;Temp;Humidity;BMP_temperature;BMP_pressure;BME280_temperature;BME280_humidity;BME280_pressure;Samples;Min_cycle;Max_cycle;Signal;HPM_P1;HPM_P2
2022/02/13 00:01:09;;;;;;;24.30;6.85;;;;;;;4.43;100.00;101621.47;5071708;28;20388;-30
2022/02/13 00:03:37;;;;;;;21.85;5.72;;;;;;;4.45;100.00;101611.00;5071775;28;20041;-29
2022/02/13 00:06:05;;;;;;;17.77;5.55;;;;;;;4.42;100.00;101609.56;5071891;28;20044;-30
2022/02/13 00:08:33;;;;;;;17.83;5.93;;;;;;;4.42;100.00;101617.84;5071487;28;20036;-30
2022/02/13 00:11:16;;;;;;;19.60;6.05;;;;;;;4.43;100.00;101599.34;5063650;28;20052;-33
2022/02/13 00:13:43;;;;;;;16.10;5.45;;;;;;;4.46;100.00;101596.97;5071521;28;20048;-31
2022/02/13 00:16:11;;;;;;;17.50;5.72;;;;;;;4.47;100.00;101597.78;5070740;28;20040;-31
2022/02/13 00:18:39;;;;;;;15.40;5.72;;;;;;;4.44;100.00;101582.53;5071373;28;20525;-30
2022/02/13 00:21:26;;;;;;;13.90;5.18;;;;;;;4.49;100.00;101590.09;5071780;28;20032;-31
2022/02/13 00:23:54;;;;;;;13.85;5.55;;;;;;;4.49;100.00;101579.06;5069728;28;20079;-31
2022/02/13 00:26:23;;;;;;;14.07;5.38;;;;;;;4.51;100.00;101582.41;5071261;28;20420;-30
2022/02/13 00:28:51;;;;;;;18.17;6.10;;;;;;;4.53;100.00;101582.19;5070666;28;20493;-32
2022/02/13 00:31:19;;;;;;;12.98;5.55;;;;;;;4.50;100.00;101577.97;5071415;28;20102;-31
2022/02/13 00:33:47;;;;;;;12.63;5.20;;;;;;;4.52;100.00;101578.59;5071355;28;20386;-30
2022/02/13 00:36:15;;;;;;;17.10;5.90;;;;;;;4.52;100.00;101558.38;5070807;28;20078;-31
2022/02/13 00:38:43;;;;;;;17.13;6.35;;;;;;;4.54;100.00;101578.34;5071115;28;20473;-31
2022/02/13 00:41:11;;;;;;;20.38;6.35;;;;;;;4.54;100.00;101557.06;5071492;28;20062;-32
2022/02/13 00:43:40;;;;;;;16.85;6.00;;;;;;;4.58;100.00;101554.66;5070458;28;20062;-32
2022/02/13 00:46:07;;;;;;;17.40;5.68;;;;;;;4.59;99.96;101551.66;5071391;28;20056;-32
2022/02/13 00:48:35;;;;;;;18.48;5.88;;;;;;;4.60;100.00;101552.47;5070161;28;20048;-32
2022/02/13 00:51:05;;;;;;;18.85;6.85;;;;;;;4.63;99.71;101555.59;5070144;28;20070;-30
2022/02/13 00:53:33;;;;;;;22.75;6.50;;;;;;;4.63;99.62;101554.75;5070613;28;20143;-30
2022/02/13 00:56:00;;;;;;;17.80;6.32;;;;;;;4.64;99.29;101565.56;5071313;28;20566;-32
2022/02/13 00:58:29;;;;;;;17.98;6.80;;;;;;;4.63;99.25;101549.22;5070198;28;20119;-31
2022/02/13 01:00:58;;;;;;;20.63;7.30;;;;;;;4.65;99.42;101538.78;5071106;28;20041;-31
2022/02/13 01:03:26;;;;;;;16.70;6.18;;;;;;;4.64;99.72;101531.56;5071037;28;20048;-33
2022/02/13 01:05:53;;;;;;;17.13;6.13;;;;;;;4.63;99.45;101529.88;5069953;28;20452;-30
2022/02/13 01:08:21;;;;;;;16.48;6.22;;;;;;;4.63;99.45;101543.69;5069708;28;20040;-30
2022/02/13 01:10:49;;;;;;;14.80;5.93;;;;;;;4.66;99.68;101529.41;5070378;28;20134;-30
2022/02/13 01:13:17;;;;;;;13.93;5.95;;;;;;;4.64;99.81;101537.94;5070912;28;20049;-29
2022/02/13 01:15:44;;;;;;;19.58;6.63;;;;;;;4.65;99.49;101552.59;5070822;28;20047;-33
2022/02/13 01:18:15;;;;;;;17.08;6.45;;;;;;;4.64;99.39;101542.63;5070124;28;20409;-29
2022/02/13 01:20:43;;;;;;;15.32;6.32;;;;;;;4.65;99.62;101545.16;5070661;28;20093;-30
2022/02/13 01:23:10;;;;;;;12.98;6.47;;;;;;;4.68;99.34;101538.28;5070914;28;20412;-30
2022/02/13 01:25:38;;;;;;;12.15;6.18;;;;;;;4.70;99.72;101539.72;5070217;28;20359;-31
2022/02/13 01:28:06;;;;;;;13.45;6.30;;;;;;;4.73;99.95;101530.97;5070784;28;20043;-31
2022/02/13 01:30:34;;;;;;;13.55;6.10;;;;;;;4.73;100.00;101525.44;5070864;28;20420;-31
2022/02/13 01:33:02;;;;;;;16.02;6.10;;;;;;;4.73;100.00;101519.06;5070118;28;20052;-31
2022/02/13 01:35:33;;;;;;;18.45;6.57;;;;;;;4.69;100.00;101518.69;5072905;28;20075;-29
2022/02/13 01:38:01;;;;;;;17.33;6.80;;;;;;;4.71;100.00;101508.25;5074652;28;20051;-29
2022/02/13 01:40:28;;;;;;;18.10;6.80;;;;;;;4.71;100.00;101515.69;5073931;28;20409;-29
2022/02/13 01:42:56;;;;;;;12.90;6.18;;;;;;;4.68;100.00;101516.19;5074793;28;20041;-30
2022/02/13 01:45:24;;;;;;;16.52;6.13;;;;;;;4.68;100.00;101505.13;5073371;28;20056;-29
2022/02/13 01:47:52;;;;;;;16.33;7.05;;;;;;;4.69;100.00;101495.75;5074152;28;20045;-29
2022/02/13 01:50:19;;;;;;;15.00;6.18;;;;;;;4.68;100.00;101494.06;5074050;28;20047;-30
2022/02/13 01:52:52;;;;;;;14.02;6.55;;;;;;;4.70;100.00;101494.66;5071363;28;20048;-30
2022/02/13 01:55:20;;;;;;;14.35;6.10;;;;;;;4.68;100.00;101489.38;5073344;28;20409;-32
2022/02/13 01:57:48;;;;;;;16.00;6.75;;;;;;;4.67;100.00;101481.31;5073349;28;20048;-31
2022/02/13 02:00:15;;;;;;;17.00;6.55;;;;;;;4.66;100.00;101490.69;5073374;28;20052;-32
2022/02/13 02:02:43;;;;;;;14.43;6.07;;;;;;;4.68;100.00;101491.28;5074390;28;20048;-30
2022/02/13 02:05:11;;;;;;;18.40;7.05;;;;;;;4.67;100.00;101467.50;5074620;28;20040;-31
2022/02/13 02:07:41;;;;;;;17.60;6.82;;;;;;;4.67;100.00;101475.78;5073206;28;20045;-30
2022/02/13 02:10:10;;;;;;;14.88;6.50;;;;;;;4.66;100.00;101457.53;5074473;28;20067;-29
2022/02/13 02:12:39;;;;;;;18.00;6.70;;;;;;;4.64;100.00;101470.75;5072304;28;20618;-30
2022/02/13 02:15:08;;;;;;;16.52;6.63;;;;;;;4.63;100.00;101466.31;5072546;28;20044;-32
2022/02/13 02:17:36;;;;;;;15.50;6.63;;;;;;;4.60;100.00;101469.56;5074104;28;20052;-31
2022/02/13 02:20:04;;;;;;;14.05;6.20;;;;;;;4.61;100.00;101457.41;5073988;28;20424;-33
2022/02/13 02:22:32;;;;;;;17.13;7.35;;;;;;;4.57;100.00;101459.84;5072867;28;20069;-31
2022/02/13 02:25:04;;;;;;;19.65;7.18;;;;;;;4.54;100.00;101449.28;5073325;28;20068;-30
2022/02/13 02:27:31;;;;;;;15.75;7.35;;;;;;;4.56;100.00;101438.00;5074066;28;20044;-29
2022/02/13 02:29:59;;;;;;;15.77;6.80;;;;;;;4.54;100.00;101427.19;5072928;28;20045;-30
2022/02/13 02:32:27;;;;;;;17.80;7.18;;;;;;;4.52;100.00;101422.97;5073889;28;20056;-32
2022/02/13 02:34:55;;;;;;;19.70;7.95;;;;;;;4.50;100.00;101426.81;5073539;28;20047;-31
2022/02/13 02:37:24;;;;;;;19.17;7.22;;;;;;;4.50;100.00;101434.28;5072789;28;20041;-31
2022/02/13 02:39:52;;;;;;;17.67;7.05;;;;;;;4.47;100.00;101429.22;5073478;28;20139;-31
2022/02/13 02:42:21;;;;;;;15.88;7.05;;;;;;;4.49;100.00;101427.91;5071913;28;20469;-31
2022/02/13 02:44:50;;;;;;;21.13;7.35;;;;;;;4.46;100.00;101425.63;5073766;28;20048;-31
2022/02/13 02:47:18;;;;;;;16.67;7.25;;;;;;;4.44;100.00;101413.97;5072341;28;20053;-30
2022/02/13 02:49:46;;;;;;;19.95;7.80;;;;;;;4.45;100.00;101412.06;5072831;28;20053;-30
2022/02/13 02:52:14;;;;;;;15.73;6.60;;;;;;;4.45;100.00;101420.34;5073202;28;20058;-30
2022/02/13 02:54:41;;;;;;;17.20;7.32;;;;;;;4.41;100.00;101414.47;5072440;28;20046;-31
2022/02/13 02:57:09;;;;;;;14.27;6.95;;;;;;;4.40;100.00;101398.97;5072656;28;20140;-30
2022/02/13 02:59:38;;;;;;;15.80;6.78;;;;;;;4.39;100.00;101393.72;5073323;28;20052;-31
2022/02/13 03:02:06;;;;;;;16.70;7.28;;;;;;;4.41;100.00;101399.81;5073018;28;20040;-29
2022/02/13 03:04:34;;;;;;;17.40;6.70;;;;;;;4.39;100.00;101391.78;5072223;28;20049;-30
2022/02/13 03:07:01;;;;;;;19.38;7.28;;;;;;;4.39;100.00;101411.13;5072950;28;20047;-31
2022/02/13 03:09:29;;;;;;;14.85;6.60;;;;;;;4.40;100.00;101390.69;5073290;28;20044;-30
2022/02/13 03:11:59;;;;;;;20.23;7.70;;;;;;;4.37;100.00;101395.88;5072160;28;20127;-33
2022/02/13 03:14:26;;;;;;;15.80;6.22;;;;;;;4.42;100.00;101390.44;5072969;28;20067;-30
2022/02/13 03:16:55;;;;;;;19.50;7.60;;;;;;;4.41;100.00;101378.53;5072680;28;20044;-30
2022/02/13 03:19:23;;;;;;;19.65;7.20;;;;;;;4.36;100.00;101381.22;5072034;28;20119;-31
2022/02/13 03:21:51;;;;;;;15.50;6.88;;;;;;;4.34;100.00;101369.56;5072562;28;20478;-29
2022/02/13 03:24:19;;;;;;;16.73;7.68;;;;;;;4.36;100.00;101359.13;5072751;28;20102;-31
2022/02/13 03:26:48;;;;;;;16.98;7.25;;;;;;;4.32;100.00;101355.16;5071916;28;20048;-29
2022/02/13 03:29:16;;;;;;;15.73;7.15;;;;;;;4.35;100.00;101359.38;5072703;28;20139;-29
2022/02/13 03:31:44;;;;;;;17.83;7.22;;;;;;;4.34;100.00;101354.94;5070707;28;20052;-32
2022/02/13 03:34:14;;;;;;;16.17;7.22;;;;;;;4.34;100.00;101349.41;5072628;28;20049;-31
2022/02/13 03:36:41;;;;;;;15.65;7.40;;;;;;;4.30;100.00;101343.53;5061833;28;20041;-30
2022/02/13 03:39:09;;;;;;;17.45;7.63;;;;;;;4.28;100.00;101334.63;5071400;28;20486;-32
2022/02/13 03:41:37;;;;;;;16.17;6.95;;;;;;;4.30;100.00;101338.00;5072538;28;20059;-29
2022/02/13 03:44:08;;;;;;;17.02;7.97;;;;;;;4.28;100.00;101347.63;5072204;28;20048;-31
2022/02/13 03:46:37;;;;;;;20.02;7.25;;;;;;;4.29;100.00;101338.25;5068270;28;20071;-29
2022/02/13 03:49:05;;;;;;;17.45;6.93;;;;;;;4.25;100.00;101323.25;5072409;28;20044;-30
2022/02/13 03:51:35;;;;;;;14.82;6.35;;;;;;;4.25;100.00;101318.56;5072082;28;20044;-30
2022/02/13 03:54:03;;;;;;;14.88;6.78;;;;;;;4.26;100.00;101314.72;5071427;28;20049;-31
2022/02/13 03:56:30;;;;;;;13.75;6.63;;;;;;;4.26;100.00;101323.00;5071830;28;20159;-31
2022/02/13 03:58:58;;;;;;;16.35;7.05;;;;;;;4.23;100.00;101331.78;5071983;28;20052;-32
2022/02/13 04:01:26;;;;;;;12.35;6.15;;;;;;;4.26;100.00;101327.69;5071387;28;20437;-30
2022/02/13 04:03:54;;;;;;;20.60;7.43;;;;;;;4.24;100.00;101330.69;5063259;28;20406;-32
2022/02/13 04:06:21;;;;;;;12.75;6.65;;;;;;;4.28;100.00;101329.13;5071866;28;20055;-31
2022/02/13 04:08:50;;;;;;;13.43;6.88;;;;;;;4.30;100.00;101321.41;5071014;28;20067;-31
2022/02/13 04:11:18;;;;;;;12.80;7.10;;;;;;;4.30;100.00;101326.94;5071579;28;20053;-30
2022/02/13 04:13:50;;;;;;;15.13;6.60;;;;;;;4.30;100.00;101315.91;5071233;28;20049;-29
2022/02/13 04:16:18;;;;;;;14.98;7.35;;;;;;;4.30;100.00;101310.38;5071494;28;20066;-34
2022/02/13 04:18:46;;;;;;;15.30;7.10;;;;;;;4.29;100.00;101314.22;5071787;28;20044;-32
2022/02/13 04:21:14;;;;;;;14.40;7.35;;;;;;;4.29;100.00;101316.97;5070740;28;20057;-31
2022/02/13 04:23:42;;;;;;;19.40;8.02;;;;;;;4.25;100.00;101309.44;5071737;28;20037;-31
2022/02/13 04:26:11;;;;;;;17.98;7.10;;;;;;;4.24;100.00;101314.13;5071658;28;20051;-32
2022/02/13 04:28:39;;;;;;;17.13;7.28;;;;;;;4.23;100.00;101304.16;5070531;28;20047;-30
2022/02/13 04:31:06;;;;;;;12.90;7.22;;;;;;;4.25;100.00;101313.03;5071589;28;20048;-31
2022/02/13 04:33:34;;;;;;;14.60;7.10;;;;;;;4.21;100.00;101313.75;5060608;28;20048;-30
2022/02/13 04:36:02;;;;;;;12.38;7.15;;;;;;;4.14;100.00;101302.88;5070085;28;20409;-31
2022/02/13 04:38:30;;;;;;;18.63;7.20;;;;;;;4.12;100.00;101299.53;5071363;28;20080;-30
2022/02/13 04:40:58;;;;;;;17.35;6.95;;;;;;;4.07;100.00;101297.50;5071258;28;20409;-31
2022/02/13 04:43:28;;;;;;;17.98;6.90;;;;;;;4.01;100.00;101286.56;5070724;28;20060;-31
2022/02/13 04:45:55;;;;;;;15.13;6.80;;;;;;;3.92;100.00;101291.66;5070381;28;20458;-30
2022/02/13 04:48:23;;;;;;;12.23;6.15;;;;;;;3.85;100.00;101290.13;5070404;28;20207;-31
2022/02/13 04:50:51;;;;;;;14.73;6.63;;;;;;;3.75;100.00;101286.06;5069942;28;20488;-30
2022/02/13 04:53:18;;;;;;;14.57;6.45;;;;;;;3.67;100.00;101280.91;5069551;28;20444;-30
2022/02/13 04:55:46;;;;;;;14.88;6.95;;;;;;;3.56;100.00;101290.06;5071415;28;20076;-31
2022/02/13 04:58:14;;;;;;;12.18;6.93;;;;;;;3.42;100.00;101270.16;5070293;28;20040;-30
2022/02/13 05:00:43;;;;;;;13.63;7.00;;;;;;;3.33;100.00;101277.16;5071369;28;20055;-29
2022/02/13 05:03:10;;;;;;;14.50;7.30;;;;;;;3.31;100.00;101278.47;5070298;28;20048;-31
2022/02/13 05:05:38;;;;;;;14.73;6.78;;;;;;;3.25;100.00;101274.75;5071062;28;20056;-33
2022/02/13 05:08:06;;;;;;;16.55;7.43;;;;;;;3.18;100.00;101271.28;5071148;28;20151;-30
2022/02/13 05:10:33;;;;;;;16.10;7.35;;;;;;;3.18;100.00;101267.69;5069882;28;20056;-35
2022/02/13 05:13:01;;;;;;;12.50;7.05;;;;;;;3.18;100.00;101264.94;5071002;28;20044;-31
2022/02/13 05:15:29;;;;;;;14.60;7.32;;;;;;;3.15;100.00;101265.41;5071032;28;20083;-30
2022/02/13 05:17:58;;;;;;;11.52;6.70;;;;;;;3.13;100.00;101262.03;5069937;28;20067;-32
2022/02/13 05:20:26;;;;;;;14.95;7.30;;;;;;;3.09;100.00;101259.75;5071139;28;20128;-29
2022/02/13 05:22:53;;;;;;;11.27;6.03;;;;;;;3.10;100.00;101255.09;5071017;28;20045;-30
2022/02/13 05:25:21;;;;;;;14.15;7.70;;;;;;;3.08;100.00;101258.09;5070292;28;20049;-30
2022/02/13 05:27:49;;;;;;;13.88;7.15;;;;;;;3.11;100.00;101251.25;5070761;28;20068;-29
2022/02/13 05:30:17;;;;;;;13.43;6.60;;;;;;;3.11;100.00;101249.34;5071071;28;20085;-31
2022/02/13 05:32:45;;;;;;;13.40;6.68;;;;;;;3.13;100.00;101237.22;5069687;28;20374;-31
2022/02/13 05:35:14;;;;;;;13.45;6.82;;;;;;;3.17;100.00;101250.31;5070894;28;20063;-30
2022/02/13 05:37:42;;;;;;;16.17;7.35;;;;;;;3.19;100.00;101239.88;5070423;28;20494;-29
2022/02/13 05:40:11;;;;;;;16.13;7.55;;;;;;;3.23;100.00;101235.53;5070087;28;20402;-31
2022/02/13 05:42:40;;;;;;;14.02;6.97;;;;;;;3.27;100.00;101241.41;5071227;28;20143;-31
2022/02/13 05:45:09;;;;;;;14.38;7.60;;;;;;;3.31;100.00;101228.81;5069757;28;20050;-29
2022/02/13 05:47:37;;;;;;;14.52;7.28;;;;;;;3.36;100.00;101226.19;5070813;28;20048;-29
2022/02/13 05:50:06;;;;;;;17.40;7.85;;;;;;;3.39;100.00;101209.16;5070645;28;20050;-31
2022/02/13 05:52:35;;;;;;;18.27;8.32;;;;;;;3.43;100.00;101210.31;5069893;28;20068;-31
2022/02/13 05:55:03;;;;;;;13.93;7.72;;;;;;;3.43;100.00;101204.78;5070624;28;20052;-31
2022/02/13 05:57:30;;;;;;;14.32;7.97;;;;;;;3.45;100.00;101202.63;5070340;28;20044;-30
2022/02/13 05:59:58;;;;;;;15.57;7.45;;;;;;;3.51;100.00;101203.59;5069643;28;20048;-31
2022/02/13 06:02:26;;;;;;;16.40;7.30;;;;;;;3.53;100.00;101210.53;5070459;28;20033;-30
2022/02/13 06:04:54;;;;;;;18.40;8.13;;;;;;;3.58;100.00;101205.13;5070576;28;20041;-31
2022/02/13 06:07:22;;;;;;;17.80;7.75;;;;;;;3.63;100.00;101199.69;5069525;28;20127;-30
2022/02/13 06:09:51;;;;;;;13.93;7.15;;;;;;;3.66;100.00;101192.84;5070555;28;20041;-31
2022/02/13 06:12:18;;;;;;;15.43;7.25;;;;;;;3.68;100.00;101191.53;5070270;28;20053;-32
2022/02/13 06:14:46;;;;;;;12.43;6.65;;;;;;;3.70;100.00;101183.00;5069529;28;20058;-31
2022/02/13 06:17:14;;;;;;;15.93;7.35;;;;;;;3.70;100.00;101178.31;5070139;28;20486;-30
2022/02/13 06:19:42;;;;;;;22.38;7.55;;;;;;;3.77;100.00;101179.03;5066859;28;20043;-30
2022/02/13 06:22:09;;;;;;;15.80;7.88;;;;;;;3.80;100.00;101166.63;5071307;28;20049;-31
2022/02/13 06:24:37;;;;;;;16.02;7.90;;;;;;;3.81;100.00;101180.19;5073482;28;20044;-32
2022/02/13 06:27:06;;;;;;;16.77;8.13;;;;;;;3.83;100.00;101188.22;5074152;28;20048;-32
2022/02/13 06:29:34;;;;;;;18.60;8.35;;;;;;;3.86;100.00;101170.34;5072929;28;20056;-31
2022/02/13 06:32:02;;;;;;;16.80;8.25;;;;;;;3.90;100.00;101163.25;5073708;28;20041;-31
2022/02/13 06:34:30;;;;;;;16.55;7.85;;;;;;;3.96;100.00;101163.09;5072912;28;20143;-32
2022/02/13 06:36:57;;;;;;;14.80;8.15;;;;;;;4.00;100.00;101166.16;5073455;28;20052;-30
2022/02/13 06:39:25;;;;;;;15.18;7.53;;;;;;;4.03;100.00;101151.88;5073251;28;20139;-30
2022/02/13 06:41:53;;;;;;;19.55;7.88;;;;;;;4.03;100.00;101152.72;5070859;28;20048;-31
2022/02/13 06:44:22;;;;;;;15.43;7.93;;;;;;;4.05;100.00;101150.53;5072437;28;20056;-29
2022/02/13 06:46:49;;;;;;;15.27;7.75;;;;;;;4.07;100.00;101153.91;5073120;28;20477;-30
2022/02/13 06:49:17;;;;;;;18.30;7.63;;;;;;;4.08;100.00;101157.50;5072202;28;20457;-30
2022/02/13 06:51:45;;;;;;;17.33;8.23;;;;;;;4.08;100.00;101151.97;5072845;28;20048;-33
2022/02/13 06:54:13;;;;;;;15.68;7.72;;;;;;;4.09;100.00;101148.13;5073144;28;20050;-30
2022/02/13 06:56:40;;;;;;;15.27;7.70;;;;;;;4.12;100.00;101147.63;5072022;28;20048;-33
2022/02/13 06:59:08;;;;;;;21.00;8.50;;;;;;;4.11;100.00;101146.78;5070671;28;20442;-29
2022/02/13 07:01:37;;;;;;;19.92;8.45;;;;;;;4.16;100.00;101148.81;5072379;28;20044;-29
2022/02/13 07:04:05;;;;;;;15.20;7.68;;;;;;;4.18;100.00;101143.88;5071943;28;20044;-31
2022/02/13 07:06:33;;;;;;;18.38;7.88;;;;;;;4.19;100.00;101147.47;5072087;28;20483;-31
2022/02/13 07:09:03;;;;;;;24.30;8.52;;;;;;;4.19;100.00;101141.97;5072117;28;20146;-29
2022/02/13 07:11:30;;;;;;;17.02;8.35;;;;;;;4.20;100.00;101141.69;5071098;28;20052;-31
2022/02/13 07:13:58;;;;;;;19.30;8.88;;;;;;;4.20;100.00;101154.69;5069742;28;20464;-30
2022/02/13 07:16:29;;;;;;;18.52;9.05;;;;;;;4.23;100.00;101146.69;5069643;28;20047;-30
2022/02/13 07:18:58;;;;;;;16.83;7.80;;;;;;;4.26;100.00;101139.84;5070317;28;20135;-30
2022/02/13 07:21:26;;;;;;;13.88;7.38;;;;;;;4.25;100.00;101136.25;5071489;28;20049;-32
2022/02/13 07:23:54;;;;;;;15.13;7.75;;;;;;;4.27;100.00;101147.88;5071077;28;20507;-32
2022/02/13 07:26:24;;;;;;;19.02;8.25;;;;;;;4.27;100.00;101136.84;5071253;28;20470;-30
2022/02/13 07:29:00;;;;;;;13.43;7.68;;;;;;;4.27;100.00;101136.00;5070697;28;20059;-30
2022/02/13 07:31:29;;;;;;;16.27;8.45;;;;;;;4.24;100.00;101129.03;5069051;28;20045;-32
2022/02/13 07:33:58;;;;;;;23.15;8.65;;;;;;;4.28;100.00;101135.75;5070687;28;20045;-32
2022/02/13 07:36:28;;;;;;;16.20;7.88;;;;;;;4.28;100.00;101135.75;5071342;28;20401;-29
2022/02/13 07:38:55;;;;;;;14.07;7.60;;;;;;;4.27;100.00;101128.56;5070272;28;20044;-30
2022/02/13 07:41:25;;;;;;;14.48;7.90;;;;;;;4.30;100.00;101132.75;5071509;28;20043;-29
2022/02/13 07:43:56;;;;;;;12.77;7.70;;;;;;;4.32;100.00;101133.31;5070968;28;20060;-32
2022/02/13 07:46:24;;;;;;;16.20;8.35;;;;;;;4.33;100.00;101124.78;5069822;28;20049;-30
2022/02/13 07:48:52;;;;;;;14.05;7.72;;;;;;;4.32;100.00;101131.41;5070983;28;20048;-32
2022/02/13 07:51:21;;;;;;;15.82;8.25;;;;;;;4.31;100.00;101132.50;5071051;28;20147;-31
2022/02/13 07:53:49;;;;;;;15.95;7.53;;;;;;;4.32;100.00;101125.88;5070140;28;20474;-30
2022/02/13 07:56:17;;;;;;;15.43;8.10;;;;;;;4.35;100.00;101116.25;5069603;28;20446;-30
2022/02/13 07:58:44;;;;;;;14.85;7.93;;;;;;;4.34;100.00;101122.88;5070250;28;20127;-29
2022/02/13 08:01:13;;;;;;;19.40;8.20;;;;;;;4.37;100.00;101128.72;5070538;28;20048;-31
2022/02/13 08:03:41;;;;;;;16.67;8.63;;;;;;;4.37;100.00;101117.69;5070754;28;20075;-32
2022/02/13 08:06:15;;;;;;;13.73;7.10;;;;;;;4.40;100.00;101117.16;5068663;28;20549;-30
2022/02/13 08:08:44;;;;;;;16.23;7.85;;;;;;;4.41;100.00;101118.81;5070716;28;20044;-30
2022/02/13 08:11:14;;;;;;;16.40;7.60;;;;;;;4.42;100.00;101120.50;5070900;28;20056;-29
2022/02/13 08:13:42;;;;;;;15.23;7.65;;;;;;;4.43;100.00;101122.19;5069600;28;20156;-32
2022/02/13 08:16:10;;;;;;;15.40;7.82;;;;;;;4.42;100.00;101117.75;5070466;28;20114;-32
2022/02/13 08:18:39;;;;;;;12.57;7.25;;;;;;;4.42;100.00;101114.97;5070159;28;20102;-31
2022/02/13 08:21:07;;;;;;;16.42;7.60;;;;;;;4.44;100.00;101121.09;5069782;28;20090;-31
2022/02/13 08:23:35;;;;;;;18.08;7.60;;;;;;;4.48;100.00;101119.50;5070066;28;20048;-31
2022/02/13 08:26:05;;;;;;;17.52;8.32;;;;;;;4.48;100.00;101108.44;5070785;28;20063;-30
2022/02/13 08:28:34;;;;;;;13.65;7.40;;;;;;;4.50;100.00;101113.72;5069487;28;20047;-31
2022/02/13 08:31:03;;;;;;;12.90;7.22;;;;;;;4.53;100.00;101117.91;5066951;28;20117;-29
2022/02/13 08:33:32;;;;;;;14.40;8.10;;;;;;;4.50;100.00;101100.75;5068215;28;20139;-31
2022/02/13 08:36:00;;;;;;;18.20;8.18;;;;;;;4.53;100.00;101098.56;5068813;28;20071;-30
2022/02/13 08:38:28;;;;;;;14.20;8.20;;;;;;;4.52;100.00;101096.91;5070199;28;20045;-29
2022/02/13 08:40:56;;;;;;;15.95;7.93;;;;;;;4.52;100.00;101094.13;5070278;28;20048;-31
2022/02/13 08:43:25;;;;;;;12.57;7.45;;;;;;;4.56;100.00;101092.53;5070025;28;20053;-30
2022/02/13 08:45:54;;;;;;;14.05;7.25;;;;;;;4.58;100.00;101084.84;5069042;28;20558;-31
2022/02/13 08:48:22;;;;;;;14.27;8.07;;;;;;;4.58;100.00;101087.59;5059882;28;20036;-32
2022/02/13 08:50:50;;;;;;;14.85;8.13;;;;;;;4.61;100.00;101098.13;5069885;28;20053;-31
2022/02/13 08:53:17;;;;;;;17.17;7.95;;;;;;;4.62;100.00;101097.88;5070205;28;20323;-30
2022/02/13 08:55:45;;;;;;;12.13;7.20;;;;;;;4.60;100.00;101089.00;5069260;28;20045;-31
2022/02/13 08:58:13;;;;;;;12.70;7.00;;;;;;;4.63;100.00;101095.94;5069782;28;20409;-30
2022/02/13 09:00:42;;;;;;;13.15;7.03;;;;;;;4.65;100.00;101085.47;5069550;28;20139;-30
2022/02/13 09:03:10;;;;;;;15.45;7.70;;;;;;;4.64;100.00;101078.28;5069049;28;20447;-30
2022/02/13 09:05:38;;;;;;;12.82;6.53;;;;;;;4.67;100.00;101075.84;5069964;28;20059;-32
2022/02/13 09:08:08;;;;;;;13.30;6.97;;;;;;;4.70;100.00;101075.34;5070369;28;20048;-35
2022/02/13 09:10:37;;;;;;;13.18;7.10;;;;;;;4.75;100.00;101063.53;5069289;28;20053;-30
2022/02/13 09:13:08;;;;;;;14.02;8.18;;;;;;;4.75;100.00;101060.75;5069927;28;20063;-30
2022/02/13 09:15:35;;;;;;;11.57;7.05;;;;;;;4.80;100.00;101063.56;5065201;28;20045;-29
2022/02/13 09:18:05;;;;;;;12.65;7.05;;;;;;;4.78;100.00;101058.31;5057086;28;20048;-29
2022/02/13 09:20:32;;;;;;;15.23;7.53;;;;;;;4.79;100.00;101062.75;5068022;28;20075;-30
2022/02/13 09:23:00;;;;;;;13.77;7.15;;;;;;;4.82;100.00;101058.63;5069613;28;20056;-30
2022/02/13 09:25:28;;;;;;;11.85;7.30;;;;;;;4.83;100.00;101065.81;5068370;28;20103;-32
2022/02/13 09:27:56;;;;;;;16.85;7.15;;;;;;;4.81;100.00;101041.19;5065721;28;20473;-30
2022/02/13 09:30:25;;;;;;;14.38;7.28;;;;;;;4.85;100.00;101042.34;5068684;28;20056;-30
2022/02/13 09:32:53;;;;;;;14.40;7.00;;;;;;;4.83;100.00;101041.78;5067247;28;20497;-30
2022/02/13 09:35:22;;;;;;;14.38;7.15;;;;;;;4.84;100.00;101023.25;5069606;28;20052;-29
2022/02/13 09:37:50;;;;;;;13.85;6.53;;;;;;;4.89;100.00;101015.03;5068531;28;20568;-30
2022/02/13 09:40:19;;;;;;;17.13;6.75;;;;;;;4.92;100.00;101025.59;5069275;28;20182;-34
2022/02/13 09:42:48;;;;;;;11.93;6.55;;;;;;;4.94;100.00;101017.88;5067400;28;20443;-31
2022/02/13 09:45:16;;;;;;;13.40;6.75;;;;;;;5.00;100.00;101004.91;5068071;28;20118;-31
2022/02/13 09:47:43;;;;;;;10.35;6.75;;;;;;;5.02;100.00;101013.78;5069456;28;20044;-30
2022/02/13 09:50:12;;;;;;;16.10;7.22;;;;;;;5.06;100.00;101014.94;5069295;28;20052;-31
2022/02/13 09:52:41;;;;;;;12.70;6.72;;;;;;;5.11;100.00;101026.09;5068399;28;20060;-30
2022/02/13 09:55:09;;;;;;;12.13;6.68;;;;;;;5.09;100.00;101009.75;5069304;28;20123;-30
2022/02/13 10:00:22;;;;;;;17.40;7.43;;;;;;;5.16;100.00;101015.91;5072313;28;20139;-30
2022/02/13 10:02:50;;;;;;;12.75;6.95;;;;;;;5.22;100.00;101024.25;5073373;28;20048;-33
2022/02/13 10:05:22;;;;;;;15.48;8.50;;;;;;;5.20;100.00;101000.44;5072927;28;20076;-31
2022/02/13 10:07:55;;;;;;;;;;;;;;;5.21;100.00;100995.75;5074039;28;20048;-30
2022/02/13 10:10:27;;;;;;;12.57;7.20;;;;;;;5.24;100.00;101000.78;5073134;28;20391;-31
2022/02/13 10:12:54;;;;;;;12.63;6.55;;;;;;;5.26;100.00;100987.50;5060868;28;20297;-30
2022/02/13 10:15:29;;;;;;;12.35;6.55;;;;;;;5.32;100.00;100993.94;5072818;28;20060;-31
2022/02/13 10:18:05;;;;;;;12.93;6.47;;;;;;;5.33;100.00;100984.56;5072660;28;20102;-30
2022/02/13 10:20:34;;;;;;;14.48;7.10;;;;;;;5.37;100.00;100988.47;5072310;28;20444;-30
2022/02/13 10:23:09;;;;;;;13.25;6.75;;;;;;;5.39;100.00;100998.19;5072771;28;20051;-31
2022/02/13 10:25:37;;;;;;;14.60;7.13;;;;;;;5.39;100.00;100995.41;5072690;28;20094;-32
2022/02/13 10:28:13;;;;;;;13.57;7.25;;;;;;;5.38;100.00;100993.75;5070907;28;20398;-31
2022/02/13 10:30:42;;;;;;;16.00;7.63;;;;;;;5.40;100.00;100983.22;5072196;28;20497;-30
2022/02/13 10:33:22;;;;;;;13.68;6.90;;;;;;;5.46;100.00;100984.13;5070603;28;20131;-32
2022/02/13 10:36:08;;;;;;;11.65;6.03;;;;;;;5.55;100.00;100990.84;5062603;28;20055;-32
2022/02/13 10:38:39;;;;;;;10.20;5.57;;;;;;;5.56;100.00;100975.09;5071231;28;20082;-31
2022/02/13 10:41:17;;;;;;;14.23;6.57;;;;;;;5.61;100.00;100969.56;5071816;28;20040;-31
2022/02/13 10:43:53;;;;;;;15.18;6.60;;;;;;;5.66;100.00;100969.63;5072165;28;20062;-30
2022/02/13 10:46:22;;;;;;;13.30;6.38;;;;;;;5.72;100.00;100969.41;5072840;28;20054;-29
2022/02/13 10:48:50;;;;;;;13.32;6.40;;;;;;;5.83;100.00;100964.78;5071775;28;20048;-30
2022/02/13 10:51:21;;;;;;;13.60;7.28;;;;;;;5.93;100.00;100953.81;5072120;28;20501;-30
2022/02/13 10:53:51;;;;;;;13.93;6.55;;;;;;;6.08;100.00;100964.16;5068813;28;20052;-31
2022/02/13 10:56:19;;;;;;;12.25;6.03;;;;;;;6.20;100.00;100948.16;5060823;28;20429;-29
2022/02/13 10:58:48;;;;;;;15.45;6.40;;;;;;;6.30;100.00;100945.47;5071546;28;20126;-32
2022/02/13 11:01:17;;;;;;;17.45;6.25;;;;;;;6.44;100.00;100937.47;5071921;28;20444;-31
2022/02/13 11:03:51;;;;;;;11.80;5.85;;;;;;;6.61;100.00;100935.34;5071202;28;20041;-30
2022/02/13 11:06:30;;;;;;;10.05;4.95;;;;;;;6.87;100.00;100925.16;5071302;28;20040;-32
2022/02/13 11:09:04;;;;;;;12.47;5.67;;;;;;;7.10;100.00;100921.91;5071682;28;20049;-33
2022/02/13 11:11:46;;;;;;;13.55;5.65;;;;;;;7.29;99.07;100904.72;5073108;28;20797;-30
2022/02/13 11:14:36;;;;;;;10.68;5.75;;;;;;;7.49;97.57;100899.16;5072076;28;20052;-30
2022/02/13 11:17:05;;;;;;;8.85;5.55;;;;;;;7.56;96.24;100911.69;5061712;28;20131;-30
2022/02/13 11:19:34;;;;;;;12.25;5.68;;;;;;;7.59;94.06;100899.19;5071698;28;20515;-33
2022/02/13 11:22:03;;;;;;;9.52;4.93;;;;;;;7.59;92.90;100879.75;5072609;28;20528;-32
2022/02/13 11:24:36;;;;;;;10.55;5.07;;;;;;;7.72;94.02;100870.00;5071492;28;20098;-30
2022/02/13 11:27:05;;;;;;;10.75;5.43;;;;;;;7.75;92.54;100875.84;5072625;28;20127;-29
2022/02/13 11:29:54;;;;;;;8.85;4.90;;;;;;;7.59;91.28;100865.84;5072496;28;20135;-31